Time,TemperatureF,DewpointF,PressureIn,WindDirection,WindDirectionDegrees,WindSpeedMPH,WindSpeedGustMPH,Humidity,HourlyPrecipIn,Conditions,Clouds,dailyrainin,SoftwareType,DateUTC
2013-09-21 00:05:00,71.6,69.5,29.74,East,90,0.0,-999.0,93,-99.99,,,0.00,Acu-Link.com,2013-09-21 04:05:00,
2013-09-21 00:21:00,71.4,69.3,29.73,East,90,0.0,-999.0,93,-99.99,,,0.00,Acu-Link.com,2013-09-21 04:21:00,
2013-09-21 00:36:00,71.1,69.3,29.73,East,90,0.0,-999.0,94,-99.99,,,0.00,Acu-Link.com,2013-09-21 04:36:00,
2013-09-21 00:51:00,70.9,69.4,29.73,SW,225,0.0,-999.0,95,-99.99,,,0.00,Acu-Link.com,2013-09-21 04:51:00,
2013-09-21 01:06:00,70.7,69.2,29.72,East,90,0.0,-999.0,95,-99.99,,,0.00,Acu-Link.com,2013-09-21 05:06:00,
2013-09-21 01:22:00,70.7,70.4,29.71,East,90,0.0,-999.0,99,-99.99,,,0.00,Acu-Link.com,2013-09-21 05:22:00,
2013-09-21 01:37:00,70.9,70.6,29.71,South,180,0.0,-999.0,99,-99.99,,,0.00,Acu-Link.com,2013-09-21 05:37:00,
2013-09-21 01:52:00,70.7,70.4,29.71,South,180,0.0,-999.0,99,-99.99,,,0.00,Acu-Link.com,2013-09-21 05:52:00,
2013-09-21 02:07:00,70.3,70.0,29.70,South,180,0.0,-999.0,99,-99.99,,,0.00,Acu-Link.com,2013-09-21 06:07:00,
2013-09-21 02:22:00,70.2,69.9,29.69,ESE,112,0.0,-999.0,99,-99.99,,,0.00,Acu-Link.com,2013-09-21 06:22:00,
2013-09-21 02:38:00,70.2,69.9,29.70,ESE,112,0.0,-999.0,99,-99.99,,,0.00,Acu-Link.com,2013-09-21 06:38:00,
2013-09-21 02:53:00,70.0,69.7,29.69,ESE,112,0.0,-999.0,99,-99.99,,,0.00,Acu-Link.com,2013-09-21 06:53:00,
2013-09-21 03:08:00,70.0,69.7,29.69,SE,135,0.0,-999.0,99,-99.99,,,0.00,Acu-Link.com,2013-09-21 07:08:00,
2013-09-21 03:23:00,70.0,69.7,29.68,ESE,112,0.0,-999.0,99,-99.99,,,0.00,Acu-Link.com,2013-09-21 07:23:00,
2013-09-21 03:38:00,70.0,69.7,29.67,ESE,112,0.0,-999.0,99,-99.99,,,0.00,Acu-Link.com,2013-09-21 07:38:00,
2013-09-21 03:54:00,70.0,69.7,29.67,SE,135,0.0,-999.0,99,-99.99,,,0.00,Acu-Link.com,2013-09-21 07:54:00,
2013-09-21 04:14:00,70.2,69.9,29.66,SSE,157,0.0,-999.0,99,-99.99,,,0.00,Acu-Link.com,2013-09-21 08:14:00,
2013-09-21 04:29:00,70.0,69.7,29.66,SSE,157,0.0,-999.0,99,-99.99,,,0.00,Acu-Link.com,2013-09-21 08:29:00,
2013-09-21 04:45:00,70.2,69.9,29.66,ESE,112,0.0,-999.0,99,-99.99,,,0.00,Acu-Link.com,2013-09-21 08:45:00,
2013-09-21 05:00:00,70.0,69.7,29.65,SSE,157,0.0,-999.0,99,-99.99,,,0.00,Acu-Link.com,2013-09-21 09:00:00,
2013-09-21 05:15:00,69.8,69.5,29.65,SSE,157,0.0,-999.0,99,-99.99,,,0.00,Acu-Link.com,2013-09-21 09:15:00,
2013-09-21 05:30:00,69.6,69.3,29.64,ESE,112,0.0,-999.0,99,-99.99,,,0.00,Acu-Link.com,2013-09-21 09:30:00,
2013-09-21 05:46:00,69.4,69.1,29.65,SW,225,0.0,-999.0,99,-99.99,,,0.00,Acu-Link.com,2013-09-21 09:46:00,
2013-09-21 06:01:00,69.6,69.3,29.65,SSW,202,0.0,-999.0,99,-99.99,,,0.00,Acu-Link.com,2013-09-21 10:01:00,
2013-09-21 06:16:00,69.6,69.3,29.65,SSE,157,0.0,-999.0,99,-99.99,,,0.00,Acu-Link.com,2013-09-21 10:16:00,
2013-09-21 06:31:00,69.4,69.1,29.65,WSW,247,1.1,-999.0,99,-99.99,,,0.00,Acu-Link.com,2013-09-21 10:31:00,
2013-09-21 06:47:00,69.4,69.1,29.66,South,180,0.0,-999.0,99,-99.99,,,0.00,Acu-Link.com,2013-09-21 10:47:00,
2013-09-21 07:02:00,69.1,68.8,29.66,SSW,202,0.0,-999.0,99,-99.99,,,0.00,Acu-Link.com,2013-09-21 11:02:00,
2013-09-21 07:17:00,69.1,68.8,29.65,South,180,0.0,-999.0,99,-99.99,,,0.00,Acu-Link.com,2013-09-21 11:17:00,
2013-09-21 07:32:00,69.4,69.1,29.66,SE,135,0.0,-999.0,99,-99.99,,,0.00,Acu-Link.com,2013-09-21 11:32:00,
2013-09-21 07:48:00,71.1,70.8,29.66,WSW,247,0.0,-999.0,99,-99.99,,,0.00,Acu-Link.com,2013-09-21 11:48:00,
2013-09-21 08:03:00,73.2,72.9,29.66,SW,225,0.0,-999.0,99,-99.99,,,0.00,Acu-Link.com,2013-09-21 12:03:00,
2013-09-21 08:18:00,76.1,75.8,29.67,SW,225,0.0,-999.0,99,-99.99,,,0.00,Acu-Link.com,2013-09-21 12:18:00,
2013-09-21 08:33:00,78.6,76.1,29.67,SSW,202,0.0,-999.0,92,-99.99,,,0.00,Acu-Link.com,2013-09-21 12:33:00,
2013-09-21 08:48:00,82.2,76.9,29.68,East,90,2.2,-999.0,84,-99.99,,,0.00,Acu-Link.com,2013-09-21 12:48:00,
2013-09-21 09:19:00,86.7,75.3,29.69,West,270,2.2,-999.0,69,-99.99,,,0.00,Acu-Link.com,2013-09-21 13:19:00,
2013-09-21 09:34:00,85.1,75.4,29.69,West,270,1.7,-999.0,73,-99.99,,,0.00,Acu-Link.com,2013-09-21 13:34:00,
2013-09-21 09:49:00,81.5,73.2,29.69,West,270,1.1,-999.0,76,-99.99,,,0.00,Acu-Link.com,2013-09-21 13:49:00,
2013-09-21 10:04:00,81.9,72.8,29.68,ESE,112,2.2,-999.0,74,-99.99,,,0.00,Acu-Link.com,2013-09-21 14:04:00,
2013-09-21 10:20:00,83.1,74.3,29.68,East,90,1.7,-999.0,75,-99.99,,,0.00,Acu-Link.com,2013-09-21 14:20:00,
2013-09-21 10:35:00,82.8,72.4,29.67,WNW,292,2.2,-999.0,71,-99.99,,,0.00,Acu-Link.com,2013-09-21 14:35:00,
2013-09-21 10:50:00,83.7,74.1,29.67,ESE,112,2.7,-999.0,73,-99.99,,,0.00,Acu-Link.com,2013-09-21 14:50:00,
2013-09-21 11:05:00,83.5,73.5,29.66,NE,45,1.7,-999.0,72,-99.99,,,0.00,Acu-Link.com,2013-09-21 15:05:00,
2013-09-21 11:20:00,85.1,72.0,29.66,ESE,112,3.7,-999.0,65,-99.99,,,0.00,Acu-Link.com,2013-09-21 15:20:00,
2013-09-21 11:36:00,85.1,73.8,29.66,NNW,337,3.2,-999.0,69,-99.99,,,0.00,Acu-Link.com,2013-09-21 15:36:00,
2013-09-21 11:51:00,86.5,73.3,29.66,WNW,292,2.7,-999.0,65,-99.99,,,0.00,Acu-Link.com,2013-09-21 15:51:00,
2013-09-21 12:06:00,86.0,72.8,29.65,West,270,3.7,-999.0,65,-99.99,,,0.00,Acu-Link.com,2013-09-21 16:06:00,
2013-09-21 12:21:00,85.3,72.6,29.66,East,90,2.7,-999.0,66,-99.99,,,0.00,Acu-Link.com,2013-09-21 16:21:00,
2013-09-21 12:36:00,85.3,72.2,29.66,West,270,0.0,-999.0,65,-99.99,,,0.00,Acu-Link.com,2013-09-21 16:36:00,
2013-09-21 12:52:00,86.0,70.0,29.65,North,0,1.7,-999.0,59,-99.99,,,0.00,Acu-Link.com,2013-09-21 16:52:00,
2013-09-21 13:07:00,85.5,70.0,29.65,West,270,3.7,-999.0,60,-99.99,,,0.00,Acu-Link.com,2013-09-21 17:07:00,
2013-09-21 13:22:00,87.1,71.5,29.64,SSE,157,1.7,-999.0,60,-99.99,,,0.00,Acu-Link.com,2013-09-21 17:22:00,
2013-09-21 13:37:00,88.9,72.2,29.64,West,270,1.7,-999.0,58,-99.99,,,0.00,Acu-Link.com,2013-09-21 17:37:00,
2013-09-21 13:53:00,89.1,70.3,29.63,West,270,1.1,-999.0,54,-99.99,,,0.00,Acu-Link.com,2013-09-21 17:53:00,
2013-09-21 14:08:00,92.1,70.7,29.63,West,270,2.2,-999.0,50,-99.99,,,0.00,Acu-Link.com,2013-09-21 18:08:00,
2013-09-21 14:23:00,88.2,69.4,29.62,SW,225,3.7,-999.0,54,-99.99,,,0.00,Acu-Link.com,2013-09-21 18:23:00,
2013-09-21 14:38:00,87.1,68.9,29.61,WSW,247,0.0,-999.0,55,-99.99,,,0.00,Acu-Link.com,2013-09-21 18:38:00,
2013-09-21 14:53:00,89.6,71.3,29.61,NW,315,2.2,-999.0,55,-99.99,,,0.00,Acu-Link.com,2013-09-21 18:53:00,
2013-09-21 15:09:00,90.9,69.6,29.59,West,270,3.2,-999.0,50,-99.99,,,0.00,Acu-Link.com,2013-09-21 19:09:00,
2013-09-21 15:24:00,88.3,68.4,29.58,West,270,2.7,-999.0,52,-99.99,,,0.00,Acu-Link.com,2013-09-21 19:24:00,
2013-09-21 15:39:00,91.2,67.5,29.58,NE,45,3.7,-999.0,46,-99.99,,,0.00,Acu-Link.com,2013-09-21 19:39:00,
2013-09-21 15:54:00,89.8,69.2,29.57,West,270,2.2,-999.0,51,-99.99,,,0.00,Acu-Link.com,2013-09-21 19:54:00,
2013-09-21 16:09:00,87.4,69.2,29.57,ENE,67,1.7,-999.0,55,-99.99,,,0.00,Acu-Link.com,2013-09-21 20:09:00,
2013-09-21 16:25:00,88.5,68.0,29.57,West,270,0.0,-999.0,51,-99.99,,,0.00,Acu-Link.com,2013-09-21 20:25:00,
2013-09-21 16:40:00,90.1,69.5,29.56,West,270,1.7,-999.0,51,-99.99,,,0.00,Acu-Link.com,2013-09-21 20:40:00,
2013-09-21 16:55:00,91.2,67.5,29.56,West,270,2.2,-999.0,46,-99.99,,,0.00,Acu-Link.com,2013-09-21 20:55:00,
2013-09-21 17:10:00,90.0,68.2,29.55,West,270,1.7,-999.0,49,-99.99,,,0.00,Acu-Link.com,2013-09-21 21:10:00,
2013-09-21 17:25:00,90.5,66.2,29.55,NE,45,2.7,-999.0,45,-99.99,,,0.00,Acu-Link.com,2013-09-21 21:25:00,
2013-09-21 17:41:00,89.6,66.7,29.55,NE,45,1.7,-999.0,47,-99.99,,,0.00,Acu-Link.com,2013-09-21 21:41:00,
2013-09-21 17:56:00,92.1,67.0,29.55,West,270,2.7,-999.0,44,-99.99,,,0.00,Acu-Link.com,2013-09-21 21:56:00,
2013-09-21 18:11:00,90.7,67.0,29.56,West,270,2.2,-999.0,46,-99.99,,,0.00,Acu-Link.com,2013-09-21 22:11:00,
2013-09-21 18:26:00,89.2,66.3,29.56,West,270,1.1,-999.0,47,-99.99,,,0.00,Acu-Link.com,2013-09-21 22:26:00,
2013-09-21 18:42:00,87.1,67.3,29.56,WSW,247,1.1,-999.0,52,-99.99,,,0.00,Acu-Link.com,2013-09-21 22:42:00,
2013-09-21 18:57:00,85.1,68.6,29.56,SSE,157,0.0,-999.0,58,-99.99,,,0.00,Acu-Link.com,2013-09-21 22:57:00,
2013-09-21 19:12:00,84.0,69.1,29.56,SW,225,0.0,-999.0,61,-99.99,,,0.00,Acu-Link.com,2013-09-21 23:12:00,
2013-09-21 19:27:00,82.2,69.7,29.56,WSW,247,0.0,-999.0,66,-99.99,,,0.00,Acu-Link.com,2013-09-21 23:27:00,
2013-09-21 19:42:00,80.8,68.4,29.56,SSW,202,0.0,-999.0,66,-99.99,,,0.00,Acu-Link.com,2013-09-21 23:42:00,
2013-09-21 19:58:00,79.7,68.6,29.57,West,270,0.0,-999.0,69,-99.99,,,0.00,Acu-Link.com,2013-09-21 23:58:00,
2013-09-21 20:13:00,78.4,70.2,29.57,WSW,247,0.0,-999.0,76,-99.99,,,0.00,Acu-Link.com,2013-09-22 00:13:00,
2013-09-21 20:30:00,77.7,69.5,29.57,WSW,247,0.0,-999.0,76,-99.99,,,0.00,Acu-Link.com,2013-09-22 00:30:00,
2013-09-21 20:45:00,76.8,70.1,29.57,WNW,292,0.0,-999.0,80,-99.99,,,0.00,Acu-Link.com,2013-09-22 00:45:00,
2013-09-21 21:00:00,76.5,70.2,29.58,West,270,2.7,-999.0,81,-99.99,,,0.00,Acu-Link.com,2013-09-22 01:00:00,
2013-09-21 21:15:00,78.1,70.3,29.58,WNW,292,0.0,-999.0,77,-99.99,,,0.00,Acu-Link.com,2013-09-22 01:15:00,
2013-09-21 21:31:00,77.5,70.5,29.59,East,90,0.0,-999.0,79,-99.99,,,0.00,Acu-Link.com,2013-09-22 01:31:00,
2013-09-21 21:46:00,77.5,71.2,29.59,WNW,292,3.7,-999.0,81,-99.99,,,0.00,Acu-Link.com,2013-09-22 01:46:00,
2013-09-21 22:01:00,78.8,72.1,29.60,SW,225,1.7,-999.0,80,-99.99,,,0.00,Acu-Link.com,2013-09-22 02:01:00,
2013-09-21 22:16:00,78.1,71.4,29.60,WSW,247,1.1,-999.0,80,-99.99,,,0.00,Acu-Link.com,2013-09-22 02:16:00,
2013-09-21 22:31:00,77.5,72.3,29.60,SW,225,0.0,-999.0,84,-99.99,,,0.00,Acu-Link.com,2013-09-22 02:31:00,
2013-09-21 22:47:00,76.6,70.7,29.60,SSW,202,0.0,-999.0,82,-99.99,,,0.00,Acu-Link.com,2013-09-22 02:47:00,
2013-09-21 23:02:00,76.1,71.3,29.61,ESE,112,1.1,-999.0,85,-99.99,,,0.00,Acu-Link.com,2013-09-22 03:02:00,
2013-09-21 23:17:00,75.9,70.7,29.61,WSW,247,0.0,-999.0,84,-99.99,,,0.00,Acu-Link.com,2013-09-22 03:17:00,
2013-09-21 23:32:00,75.6,70.4,29.60,SSE,157,1.1,-999.0,84,-99.99,,,0.00,Acu-Link.com,2013-09-22 03:32:00,
2013-09-21 23:48:00,75.4,70.2,29.60,East,90,0.0,-999.0,84,-99.99,,,0.00,Acu-Link.com,2013-09-22 03:48:00,